This is the latest recevied weather packets stored in our database for station/object JF1AJE-13. If no packets are shown the sender has not sent any weather packets the latest 10 day(s).
| Time | Temp. | Humidity | Pressure | Rain* | Wind** | Luminosity | Snow |
|---|---|---|---|---|---|---|---|
| 1777833952 | 18.89° C | 86% | 993.5 hPa | 0.25 mm | - | - | - |
| 1777832753 | 18.33° C | 83% | 994.6 hPa | 0 mm | - | - | - |
| 1777831551 | 18.33° C | 80% | 994.4 hPa | 0 mm | - | - | - |
| 1777830351 | 18.89° C | 75% | 994.6 hPa | 0 mm | - | - | - |
| 1777829153 | 18.89° C | 74% | 995.3 hPa | 0 mm | - | - | - |
| 1777827950 | 18.89° C | 75% | 995.6 hPa | 0 mm | - | - | - |
| 1777826751 | 18.89° C | 76% | 995.6 hPa | 0 mm | - | - | - |
| 1777825552 | 18.89° C | 76% | 996.7 hPa | 0 mm | - | - | - |
| 1777824363 | 18.89° C | 77% | 996.6 hPa | 0 mm | - | - | - |
| 1777823151 | 18.89° C | 74% | 997.1 hPa | 0 mm | - | - | - |
| 1777821951 | 18.89° C | 74% | 997.5 hPa | 0 mm | - | - | - |
| 1777820756 | 18.89° C | 72% | 997.8 hPa | 0 mm | - | - | - |
| 1777819554 | 18.89° C | 74% | 998.2 hPa | 0 mm | - | - | - |
| 1777818354 | 18.89° C | 74% | 998.8 hPa | 0 mm | - | - | - |
| 1777817154 | 18.89° C | 72% | 998.9 hPa | 0 mm | - | - | - |
| 1777815957 | 18.89° C | 71% | 999 hPa | 0 mm | - | - | - |
| 1777814754 | 18.89° C | 71% | 1000 hPa | 0 mm | - | - | - |
| 1777813555 | 18.89° C | 70% | 1000.3 hPa | 0 mm | - | - | - |
| 1777811153 | 18.89° C | 65% | 1000.8 hPa | 0 mm | - | - | - |
| 1777809954 | 19.44° C | 59% | 1001.1 hPa | 0 mm | - | - | - |
| 1777808758 | 20° C | 56% | 1000.8 hPa | 0 mm | - | - | - |
| 1777807554 | 20° C | 53% | 1000.7 hPa | 0 mm | - | - | - |
| 1777805153 | 21.11° C | 49% | 1000.4 hPa | 0 mm | - | - | - |
| 1777803952 | 21.11° C | 46% | 1000.5 hPa | 0 mm | - | - | - |
| 1777751522 | 15° C | 57% | 1007.8 hPa | 0 mm | - | - | - |
* Rain latest hour (hover to see other rain measurements)
** Current wind speed in m/s (hover to see current wind gust speed)